Burniston, United Kingdom
Current Conditions -  °F | °C
As of 9:50 PM on Monday 26 Jan 2015 (Local Time) from EGXV Reporting Station
Clear Clear  
Wind Chill: 31°   Ceiling: Unl
Heat Index: 37°   Visibility: 6mi
Dew Point: 32°   Wind: 8mph
Humidity: 81%   Direction: 280°W
Pressure: 30.24"   Gusts: NA
Location:  54.32°N, 0.45°W
Report Text: EGXV 262150Z AUTO 28007KT 9999 NCD 03/00 Q1024
Loading
Personal Weather Stations






























Interactive Weather Map New forecast layout! Learn more

10-Day Weather Forecast

Advertisements
Track Severe Weather on mobile